createdAt,value
2019-02-10T00:02:07.635Z,9.40
2019-02-10T00:04:38.560Z,9.60
2019-02-10T00:07:11.625Z,9.50
2019-02-10T00:09:41.715Z,9.60
2019-02-10T00:12:11.391Z,9.60
2019-02-10T00:14:41.067Z,9.80
2019-02-10T00:17:10.833Z,10.00
2019-02-10T00:19:40.496Z,9.70
2019-02-10T00:22:12.494Z,9.50
2019-02-10T00:24:42.168Z,9.50
2019-02-10T00:27:12.774Z,9.60
2019-02-10T00:29:42.988Z,9.80
2019-02-10T00:32:12.644Z,9.90
2019-02-10T00:34:43.808Z,10.10
2019-02-10T00:37:15.108Z,9.90
2019-02-10T00:39:45.326Z,10.30
2019-02-10T00:42:15.123Z,10.10
2019-02-10T00:44:44.869Z,10.20
2019-02-10T00:47:15.890Z,10.00
2019-02-10T00:49:47.199Z,9.70
2019-02-10T00:52:16.783Z,9.80
2019-02-10T00:54:47.586Z,10.10
2019-02-10T00:57:17.187Z,9.80
2019-02-10T00:59:48.655Z,10.10
2019-02-10T01:02:18.421Z,9.80
2019-02-10T01:04:48.114Z,9.70
2019-02-10T01:07:19.575Z,9.70
2019-02-10T01:09:49.213Z,9.30
2019-02-10T01:12:21.428Z,9.50
2019-02-10T01:15:10.187Z,9.30
2019-02-10T01:17:43.174Z,9.50
2019-02-10T01:20:14.183Z,9.40
2019-02-10T01:22:46.807Z,9.40
2019-02-10T01:25:18.143Z,9.80
2019-02-10T01:27:50.648Z,9.90
2019-02-10T01:30:22.059Z,9.60
2019-02-10T01:32:53.213Z,9.50
2019-02-10T01:35:25.074Z,9.50
2019-02-10T01:37:59.445Z,9.20
2019-02-10T01:40:29.139Z,9.30
2019-02-10T01:42:59.206Z,9.30
2019-02-10T01:45:31.360Z,8.90
2019-02-10T01:48:02.511Z,9.20
2019-02-10T01:50:32.860Z,9.50
2019-02-10T01:53:02.559Z,9.70
2019-02-10T01:55:33.103Z,9.70
2019-02-10T01:58:02.678Z,9.70
2019-02-10T02:00:33.230Z,9.40
2019-02-10T02:03:03.627Z,9.10
2019-02-10T02:05:33.574Z,8.90
2019-02-10T02:08:04.456Z,9.40
2019-02-10T02:10:34.707Z,9.10
2019-02-10T02:13:04.466Z,9.30
2019-02-10T02:15:34.252Z,9.30
2019-02-10T02:18:04.543Z,9.20
2019-02-10T02:20:35.763Z,9.50
2019-02-10T02:23:05.555Z,9.40
2019-02-10T02:25:35.202Z,9.40
2019-02-10T02:28:05.927Z,9.90
2019-02-10T02:30:36.103Z,9.60
2019-02-10T02:33:06.955Z,9.70
2019-02-10T02:35:38.514Z,9.30
2019-02-10T02:38:08.085Z,9.10
2019-02-10T02:40:39.666Z,9.30
2019-02-10T02:43:10.276Z,8.90
2019-02-10T02:45:44.822Z,8.60
2019-02-10T02:48:14.896Z,8.50
2019-02-10T02:50:44.546Z,8.50
2019-02-10T02:53:14.108Z,8.30
2019-02-10T02:55:44.972Z,8.30
2019-02-10T02:58:14.719Z,8.40
2019-02-10T03:00:44.483Z,8.60
2019-02-10T03:03:14.263Z,8.50
2019-02-10T03:05:43.859Z,8.50
2019-02-10T03:08:13.789Z,8.40
2019-02-10T03:10:46.279Z,8.40
2019-02-10T03:13:15.946Z,8.20
2019-02-10T03:15:45.645Z,8.30
2019-02-10T03:18:15.513Z,8.20
2019-02-10T03:20:46.564Z,8.20
2019-02-10T03:23:16.323Z,8.40
2019-02-10T03:25:46.098Z,8.50
2019-02-10T03:28:16.319Z,8.40
2019-02-10T03:30:46.107Z,8.40
2019-02-10T03:33:19.140Z,8.50
2019-02-10T03:35:48.703Z,8.50
2019-02-10T03:38:18.468Z,8.30
2019-02-10T03:40:48.032Z,8.00
2019-02-10T03:43:19.544Z,8.10
2019-02-10T03:45:52.114Z,7.90
2019-02-10T03:48:23.349Z,8.10
2019-02-10T03:50:53.369Z,7.80
2019-02-10T03:53:23.082Z,7.90
2019-02-10T03:55:52.776Z,7.80
2019-02-10T03:58:24.269Z,7.80
2019-02-10T04:00:55.805Z,7.90
2019-02-10T04:03:25.355Z,7.70
2019-02-10T04:05:56.918Z,7.60
2019-02-10T04:08:26.531Z,7.90
2019-02-10T04:10:56.123Z,7.60
2019-02-10T04:13:25.746Z,7.70
2019-02-10T04:15:55.573Z,7.70
2019-02-10T04:18:25.703Z,7.60
2019-02-10T04:20:55.375Z,7.80
2019-02-10T04:23:26.654Z,7.70
2019-02-10T04:25:58.189Z,7.70
2019-02-10T04:28:29.068Z,7.70
2019-02-10T04:30:58.847Z,7.60
2019-02-10T04:33:28.531Z,7.70
2019-02-10T04:35:58.210Z,7.80
2019-02-10T04:38:28.333Z,7.50
2019-02-10T04:40:59.505Z,7.50
2019-02-10T04:43:29.158Z,7.60
2019-02-10T04:46:00.666Z,7.60
2019-02-10T04:48:30.666Z,7.50
2019-02-10T04:51:00.275Z,7.40
2019-02-10T04:53:29.894Z,7.30
2019-02-10T04:56:17.581Z,7.40
2019-02-10T04:58:49.798Z,7.50
2019-02-10T05:01:19.411Z,7.70
2019-02-10T05:03:49.143Z,7.50
2019-02-10T05:06:18.960Z,7.40
2019-02-10T05:08:48.667Z,7.70
2019-02-10T05:11:19.998Z,7.70
2019-02-10T05:13:49.753Z,7.50
2019-02-10T05:16:21.203Z,7.80
2019-02-10T05:18:51.868Z,7.60
2019-02-10T05:21:21.499Z,7.60
2019-02-10T05:23:53.574Z,7.60
2019-02-10T05:26:23.271Z,7.70
2019-02-10T05:28:52.851Z,7.60
2019-02-10T05:31:23.886Z,7.70
2019-02-10T05:33:53.462Z,7.60
2019-02-10T05:36:23.079Z,7.60
2019-02-10T05:38:52.854Z,7.60
2019-02-10T05:41:23.003Z,7.50
2019-02-10T05:43:53.007Z,7.70
2019-02-10T05:46:23.906Z,8.00
2019-02-10T05:48:54.107Z,7.70
2019-02-10T05:51:23.703Z,7.60
2019-02-10T05:53:53.460Z,7.80
2019-02-10T05:56:23.696Z,7.90
2019-02-10T05:58:54.524Z,7.80
2019-02-10T06:02:32.947Z,8.00
2019-02-10T06:05:12.610Z,7.90
2019-02-10T06:07:42.637Z,7.70
2019-02-10T06:10:12.204Z,8.10
2019-02-10T06:12:43.451Z,7.90
2019-02-10T06:15:13.567Z,7.80
2019-02-10T06:17:44.226Z,7.80
2019-02-10T06:20:14.122Z,7.70
2019-02-10T06:22:45.778Z,7.70
2019-02-10T06:25:16.650Z,7.80
2019-02-10T06:27:46.315Z,7.80
2019-02-10T06:30:19.200Z,7.90
2019-02-10T06:32:52.094Z,7.90
2019-02-10T06:35:21.838Z,8.00
2019-02-10T06:37:53.223Z,8.00
2019-02-10T06:40:23.606Z,7.80
2019-02-10T06:42:55.089Z,7.90
2019-02-10T06:45:25.857Z,7.90
2019-02-10T06:47:57.817Z,7.80
2019-02-10T06:50:27.750Z,8.00
2019-02-10T06:52:58.088Z,8.00
2019-02-10T06:55:29.227Z,7.90
2019-02-10T06:57:58.852Z,7.90
2019-02-10T07:00:44.882Z,8.00
2019-02-10T07:03:45.539Z,8.00
2019-02-10T07:06:15.739Z,8.00
2019-02-10T07:08:48.952Z,8.20
2019-02-10T07:11:19.168Z,8.10
2019-02-10T07:13:52.655Z,8.10
2019-02-10T07:16:33.268Z,8.20
2019-02-10T07:19:38.676Z,8.20
2019-02-10T07:22:54.672Z,8.20
2019-02-10T07:25:54.656Z,8.20
2019-02-10T07:29:02.644Z,8.20
2019-02-10T07:31:41.935Z,8.30
2019-02-10T07:34:48.014Z,8.30
2019-02-10T07:37:59.639Z,8.40
2019-02-10T07:41:22.871Z,8.50
2019-02-10T07:44:14.978Z,8.40
2019-02-10T07:46:59.704Z,8.50
2019-02-10T07:49:51.222Z,8.70
2019-02-10T07:53:15.007Z,8.70
2019-02-10T07:56:06.302Z,8.70
2019-02-10T07:59:15.304Z,8.80
2019-02-10T08:02:12.622Z,8.90
2019-02-10T08:05:16.843Z,9.00
2019-02-10T08:08:29.751Z,9.10
2019-02-10T08:11:32.090Z,9.10
2019-02-10T08:14:58.834Z,9.10
2019-02-10T08:17:59.407Z,9.20
2019-02-10T08:21:07.395Z,9.20
2019-02-10T08:24:11.481Z,9.40
2019-02-10T08:27:17.700Z,9.50
2019-02-10T08:30:29.918Z,9.60
2019-02-10T08:33:38.242Z,9.50
2019-02-10T08:36:19.633Z,9.60
2019-02-10T08:39:33.388Z,9.70
2019-02-10T08:42:58.452Z,9.70
2019-02-10T08:45:59.420Z,9.80
2019-02-10T08:48:58.100Z,9.90
2019-02-10T08:51:57.877Z,9.90
2019-02-10T08:54:27.910Z,9.90
2019-02-10T08:56:59.078Z,9.90
2019-02-10T08:59:28.824Z,10.10
2019-02-10T09:02:00.428Z,10.10
2019-02-10T09:04:30.094Z,10.10
2019-02-10T09:07:00.395Z,10.20
2019-02-10T09:09:33.167Z,10.10
2019-02-10T09:12:03.950Z,10.10
2019-02-10T09:14:33.709Z,10.10
2019-02-10T09:17:04.665Z,10.20
2019-02-10T09:19:34.277Z,10.10
2019-02-10T09:22:04.014Z,10.20
2019-02-10T09:24:33.695Z,10.20
2019-02-10T09:27:03.308Z,10.20
2019-02-10T09:29:33.859Z,10.30
2019-02-10T09:32:03.579Z,10.30
2019-02-10T09:34:34.884Z,10.20
2019-02-10T09:37:07.452Z,10.10
2019-02-10T09:39:38.403Z,10.20
2019-02-10T09:42:08.697Z,10.10
2019-02-10T09:44:39.627Z,9.90
2019-02-10T09:47:10.362Z,9.90
2019-02-10T09:49:40.183Z,9.80
2019-02-10T09:52:12.686Z,9.80
2019-02-10T09:54:42.302Z,9.70
2019-02-10T09:57:11.926Z,9.70
2019-02-10T09:59:41.635Z,9.70
2019-02-10T10:02:11.347Z,9.90
2019-02-10T10:04:41.118Z,9.80
2019-02-10T10:07:11.343Z,9.50
2019-02-10T10:09:41.099Z,9.50
2019-02-10T10:12:10.942Z,9.60
2019-02-10T10:14:42.491Z,9.70
2019-02-10T10:17:12.159Z,9.60
2019-02-10T10:19:41.827Z,9.60
2019-02-10T10:22:14.219Z,9.80
2019-02-10T10:24:50.496Z,9.70
2019-02-10T10:27:17.078Z,9.60
2019-02-10T10:29:48.700Z,9.60
2019-02-10T10:32:19.972Z,9.50
2019-02-10T10:34:49.936Z,9.50
2019-02-10T10:37:21.748Z,9.60
2019-02-10T10:39:52.418Z,9.60
2019-02-10T10:42:22.210Z,9.60
2019-02-10T10:44:53.462Z,9.60
2019-02-10T10:47:23.999Z,9.60
2019-02-10T10:49:53.663Z,9.50
2019-02-10T10:52:23.566Z,9.70
2019-02-10T10:54:54.152Z,9.60
2019-02-10T10:57:25.231Z,9.60
2019-02-10T10:59:55.145Z,9.60
2019-02-10T11:02:26.255Z,9.80
2019-02-10T11:04:55.854Z,9.80
2019-02-10T11:07:25.423Z,9.70
2019-02-10T11:09:55.106Z,9.80
2019-02-10T11:12:24.808Z,9.70
2019-02-10T11:14:54.540Z,9.90
2019-02-10T11:17:24.406Z,9.80
2019-02-10T11:19:54.515Z,10.10
2019-02-10T11:22:24.091Z,9.80
2019-02-10T11:24:55.235Z,9.90
2019-02-10T11:27:26.243Z,9.80
2019-02-10T11:29:55.880Z,9.80
2019-02-10T11:32:25.717Z,9.80
2019-02-10T11:34:56.370Z,9.80
2019-02-10T11:37:27.085Z,9.70
2019-02-10T11:39:56.835Z,9.70
2019-02-10T11:42:26.520Z,9.70
2019-02-10T11:44:58.115Z,9.60
2019-02-10T11:47:28.893Z,9.70
2019-02-10T11:49:59.059Z,9.80
2019-02-10T11:52:28.702Z,9.60
2019-02-10T11:54:58.372Z,9.50
2019-02-10T11:57:28.078Z,9.50
2019-02-10T11:59:59.123Z,9.60
2019-02-10T12:02:29.175Z,9.40
2019-02-10T12:05:00.138Z,9.40
2019-02-10T12:07:29.915Z,9.20
2019-02-10T12:09:59.564Z,9.20
2019-02-10T12:12:30.787Z,9.30
2019-02-10T12:15:00.415Z,9.30
2019-02-10T12:17:29.990Z,9.20
2019-02-10T12:20:00.762Z,9.30
2019-02-10T12:22:30.430Z,9.60
2019-02-10T12:25:01.171Z,9.60
2019-02-10T12:27:32.655Z,9.30
2019-02-10T12:30:03.854Z,9.20
2019-02-10T12:32:33.535Z,9.00
2019-02-10T12:35:05.190Z,9.00
2019-02-10T12:37:34.875Z,9.00
2019-02-10T12:40:07.555Z,8.80
2019-02-10T12:42:39.061Z,8.90
2019-02-10T12:45:09.671Z,8.60
2019-02-10T12:47:39.272Z,8.60
2019-02-10T12:50:10.302Z,8.90
2019-02-10T12:52:40.286Z,8.80
2019-02-10T12:55:10.298Z,8.70
2019-02-10T12:57:41.435Z,8.80
2019-02-10T13:00:14.035Z,8.80
2019-02-10T13:02:44.690Z,8.80
2019-02-10T13:05:15.774Z,9.10
2019-02-10T13:07:45.942Z,9.00
2019-02-10T13:10:18.027Z,8.70
2019-02-10T13:12:47.085Z,8.70
2019-02-10T13:15:18.599Z,9.00
2019-02-10T13:17:48.391Z,9.10
2019-02-10T13:20:18.613Z,8.90
2019-02-10T13:22:48.304Z,8.90
2019-02-10T13:25:18.079Z,9.00
2019-02-10T13:27:49.573Z,9.00
2019-02-10T13:30:21.126Z,8.80
2019-02-10T13:32:51.032Z,9.10
2019-02-10T13:35:20.711Z,9.50
2019-02-10T13:37:50.303Z,9.20
2019-02-10T13:40:20.027Z,9.20
2019-02-10T13:42:50.803Z,9.10
2019-02-10T13:45:21.074Z,9.10
2019-02-10T13:47:51.624Z,9.10
2019-02-10T13:50:22.521Z,9.00
2019-02-10T13:52:52.255Z,9.20
2019-02-10T13:55:24.741Z,9.00
2019-02-10T13:57:54.453Z,9.00
2019-02-10T14:00:24.396Z,9.00
2019-02-10T14:02:54.087Z,9.00
2019-02-10T14:05:25.587Z,9.10
2019-02-10T14:07:55.369Z,9.10
2019-02-10T14:10:26.566Z,9.30
2019-02-10T14:13:01.525Z,9.40
2019-02-10T14:15:31.469Z,9.10
2019-02-10T14:18:02.211Z,9.10
2019-02-10T14:20:33.631Z,9.10
2019-02-10T14:23:04.600Z,9.20
2019-02-10T14:25:36.143Z,9.30
2019-02-10T14:28:06.304Z,9.40
2019-02-10T14:30:35.952Z,9.10
2019-02-10T14:33:06.782Z,9.10
2019-02-10T14:35:36.647Z,8.90
2019-02-10T14:38:06.231Z,9.00
2019-02-10T14:40:35.883Z,9.10
2019-02-10T14:43:05.562Z,9.20
2019-02-10T14:45:35.155Z,8.90
2019-02-10T14:48:05.248Z,8.80
2019-02-10T14:50:35.375Z,8.80
2019-02-10T14:53:05.707Z,8.40
2019-02-10T14:55:35.508Z,8.30
2019-02-10T14:58:06.607Z,8.40
2019-02-10T15:00:36.309Z,8.50
2019-02-10T15:03:09.385Z,8.20
2019-02-10T15:05:40.327Z,8.10
2019-02-10T15:08:11.005Z,8.30
2019-02-10T15:10:42.517Z,8.70
2019-02-10T15:13:12.255Z,8.90
2019-02-10T15:15:41.906Z,8.70
2019-02-10T15:18:12.655Z,8.50
2019-02-10T15:20:43.403Z,9.20
2019-02-10T15:23:13.115Z,9.00
2019-02-10T15:25:42.796Z,9.20
2019-02-10T15:28:14.413Z,9.20
2019-02-10T15:30:45.234Z,8.40
2019-02-10T15:33:15.043Z,8.30
2019-02-10T15:35:45.084Z,8.50
2019-02-10T15:38:15.858Z,8.40
2019-02-10T15:40:50.101Z,8.50
2019-02-10T15:43:19.178Z,8.30
2019-02-10T15:45:48.867Z,8.90
2019-02-10T15:48:18.971Z,9.10
2019-02-10T15:50:50.426Z,9.10
2019-02-10T15:53:21.686Z,9.00
2019-02-10T15:55:51.640Z,9.00
2019-02-10T15:58:21.305Z,9.20
2019-02-10T16:00:51.250Z,8.90
2019-02-10T16:03:22.703Z,8.40
2019-02-10T16:05:52.551Z,8.30
2019-02-10T16:08:22.158Z,8.30
2019-02-10T16:10:57.971Z,8.00
2019-02-10T16:13:24.578Z,7.90
2019-02-10T16:15:55.616Z,7.70
2019-02-10T16:18:25.351Z,7.70
2019-02-10T16:20:56.183Z,7.70
2019-02-10T16:23:27.650Z,7.80
2019-02-10T16:25:57.360Z,7.90
2019-02-10T16:28:27.860Z,7.70
2019-02-10T16:30:59.343Z,7.70
2019-02-10T16:33:28.989Z,7.60
2019-02-10T16:35:58.875Z,7.90
2019-02-10T16:38:29.336Z,8.00
2019-02-10T16:41:06.153Z,7.80
2019-02-10T16:43:30.685Z,7.80
2019-02-10T16:46:00.882Z,7.60
2019-02-10T16:48:30.711Z,8.10
2019-02-10T16:51:00.527Z,8.10
2019-02-10T16:53:31.438Z,8.10
2019-02-10T16:56:03.183Z,7.80
2019-02-10T16:58:32.910Z,7.80
2019-02-10T17:01:02.754Z,7.90
2019-02-10T17:03:32.467Z,7.80
2019-02-10T17:06:02.619Z,7.60
2019-02-10T17:08:32.613Z,8.40
2019-02-10T17:11:03.856Z,8.30
2019-02-10T17:13:34.142Z,8.50
2019-02-10T17:16:05.347Z,8.30
2019-02-10T17:18:35.063Z,7.30
2019-02-10T17:21:06.358Z,7.20
2019-02-10T17:23:36.559Z,7.80
2019-02-10T17:26:07.982Z,7.30
2019-02-10T17:28:38.706Z,7.30
2019-02-10T17:31:09.574Z,7.10
2019-02-10T17:33:40.403Z,7.00
2019-02-10T17:36:11.489Z,7.50
2019-02-10T17:38:43.182Z,7.20
2019-02-10T17:41:26.173Z,7.50
2019-02-10T17:43:56.003Z,7.60
2019-02-10T17:46:26.799Z,7.00
2019-02-10T17:48:57.748Z,7.10
2019-02-10T17:51:27.926Z,7.50
2019-02-10T17:53:59.411Z,7.20
2019-02-10T17:56:30.327Z,6.90
2019-02-10T17:59:01.538Z,7.10
2019-02-10T18:01:32.784Z,7.20
2019-02-10T18:06:51.635Z,7.10
2019-02-10T18:09:22.456Z,6.90
2019-02-10T18:11:52.104Z,7.10
2019-02-10T18:14:45.529Z,7.80
2019-02-10T18:17:44.870Z,7.60
2019-02-10T18:20:27.215Z,7.00
2019-02-10T18:23:31.885Z,6.90
2019-02-10T18:26:13.147Z,6.80
2019-02-10T18:29:02.847Z,6.70
2019-02-10T18:31:54.439Z,6.50
2019-02-10T18:34:34.226Z,6.80
2019-02-10T18:37:42.854Z,7.00
2019-02-10T18:40:24.084Z,7.30
2019-02-10T18:43:12.066Z,6.80
2019-02-10T18:45:56.502Z,7.40
2019-02-10T18:48:38.631Z,7.40
2019-02-10T18:51:13.939Z,6.80
2019-02-10T18:54:09.610Z,6.40
2019-02-10T18:56:51.123Z,6.40
2019-02-10T18:59:35.814Z,6.50
2019-02-10T19:02:17.688Z,6.60
2019-02-10T19:05:06.307Z,6.10
2019-02-10T19:07:54.215Z,6.00
2019-02-10T19:10:55.239Z,5.80
2019-02-10T19:13:45.247Z,6.30
2019-02-10T19:16:33.824Z,5.70
2019-02-10T19:19:13.933Z,6.10
2019-02-10T19:22:05.187Z,6.70
2019-02-10T19:24:53.015Z,6.30
2019-02-10T19:27:49.099Z,6.10
2019-02-10T19:30:37.674Z,6.40
2019-02-10T19:33:21.579Z,6.00
2019-02-10T19:36:07.435Z,5.70
2019-02-10T19:38:56.054Z,5.70
2019-02-10T19:41:44.647Z,6.10
2019-02-10T19:44:40.815Z,5.70
2019-02-10T19:47:29.296Z,5.30
2019-02-10T19:50:07.182Z,5.60
2019-02-10T19:52:54.530Z,5.30
2019-02-10T19:55:44.200Z,6.10
2019-02-10T19:58:27.992Z,6.50
2019-02-10T20:01:22.483Z,6.30
2019-02-10T20:04:07.135Z,6.70
2019-02-10T20:06:46.603Z,6.00
2019-02-10T20:09:40.992Z,6.30
2019-02-10T20:12:30.711Z,5.90
2019-02-10T20:15:12.377Z,5.80
2019-02-10T20:17:49.435Z,5.80
2019-02-10T20:20:39.623Z,5.80
2019-02-10T20:23:37.099Z,5.80
2019-02-10T20:26:31.660Z,5.40
2019-02-10T20:29:19.503Z,5.40
2019-02-10T20:32:15.807Z,5.40
2019-02-10T20:35:04.057Z,5.10
2019-02-10T20:37:59.923Z,4.90
2019-02-10T20:40:47.280Z,5.10
2019-02-10T20:43:42.148Z,5.80
2019-02-10T20:46:28.404Z,5.00
2019-02-10T20:49:17.044Z,5.40
2019-02-10T20:52:17.615Z,5.80
2019-02-10T20:55:11.905Z,5.50
2019-02-10T20:58:01.078Z,5.30
2019-02-10T21:00:51.943Z,5.20
2019-02-10T21:03:39.431Z,5.30
2019-02-10T21:06:18.105Z,5.00
2019-02-10T21:09:06.888Z,4.90
2019-02-10T21:12:10.840Z,4.80
2019-02-10T21:15:02.021Z,4.40
2019-02-10T21:17:42.319Z,4.30
2019-02-10T21:20:25.784Z,4.70
2019-02-10T21:23:06.999Z,4.40
2019-02-10T21:25:54.285Z,4.10
2019-02-10T21:28:41.597Z,4.00
2019-02-10T21:31:38.319Z,4.80
2019-02-10T21:34:16.782Z,4.20
2019-02-10T21:36:54.131Z,4.20
2019-02-10T21:39:58.535Z,3.80
2019-02-10T21:42:56.227Z,3.80
2019-02-10T21:45:35.378Z,3.90
2019-02-10T21:48:15.520Z,4.30
2019-02-10T21:50:46.216Z,4.00
2019-02-10T21:53:16.926Z,3.90
2019-02-10T21:55:47.416Z,4.40
2019-02-10T21:58:19.978Z,3.50
2019-02-10T22:00:49.786Z,4.60
2019-02-10T22:03:19.414Z,4.90
2019-02-10T22:05:49.207Z,3.80
2019-02-10T22:08:18.885Z,4.10
2019-02-10T22:10:48.519Z,5.10
2019-02-10T22:13:18.579Z,4.40
2019-02-10T22:15:50.631Z,3.80
2019-02-10T22:18:22.948Z,3.50
2019-02-10T22:20:53.522Z,3.60
2019-02-10T22:23:23.470Z,4.70
2019-02-10T22:25:53.415Z,4.80
2019-02-10T22:28:23.040Z,4.20
2019-02-10T22:30:55.195Z,4.70
2019-02-10T22:33:24.815Z,4.80
2019-02-10T22:35:56.240Z,4.30
2019-02-10T22:38:25.857Z,4.10
2019-02-10T22:40:58.684Z,3.90
2019-02-10T22:43:30.199Z,4.40
2019-02-10T22:46:00.368Z,4.40
2019-02-10T22:48:30.035Z,4.30
2019-02-10T22:51:00.145Z,4.50
2019-02-10T22:53:30.704Z,5.60
2019-02-10T22:56:00.429Z,5.40
2019-02-10T22:58:30.202Z,4.50
2019-02-10T23:03:30.850Z,4.30
2019-02-10T23:06:02.345Z,4.00
2019-02-10T23:08:32.487Z,4.00
2019-02-10T23:11:03.775Z,3.90
2019-02-10T23:13:35.307Z,4.50
2019-02-10T23:16:05.031Z,4.40
2019-02-10T23:18:36.259Z,4.70
2019-02-10T23:21:07.758Z,4.40
2019-02-10T23:23:37.508Z,4.40
2019-02-10T23:36:05.658Z,4.80
2019-02-10T23:38:35.763Z,5.20
2019-02-10T23:41:06.951Z,4.80
2019-02-10T23:43:36.756Z,4.70
2019-02-10T23:46:06.296Z,5.40
2019-02-10T23:48:36.015Z,4.90
2019-02-10T23:51:10.121Z,4.80
2019-02-10T23:53:41.290Z,4.60
2019-02-10T23:56:12.260Z,4.80
2019-02-10T23:58:42.064Z,5.40
